Time;durP1;ratioP1;P1;durP2;ratioP2;P2;SDS_P1;SDS_P2;PMS_P1;PMS_P2;Temp;Humidity;BMP_temperature;BMP_pressure;BME280_temperature;BME280_humidity;BME280_pressure;Samples;Min_cycle;Max_cycle;Signal;HPM_P1;HPM_P2
2022/12/22 03:25:53;;;;;;;184.40;90.20;;;;;;;-0.02;91.76;98525.59;85705;1289;99439;-70
2022/12/22 03:28:02;;;;;;;177.10;87.50;;;;;;;-0.03;91.70;98522.86;85730;1289;22613;-70
2022/12/22 03:30:04;;;;;;;170.80;87.80;;;;;;;-0.02;91.83;98526.80;85954;1290;22675;-70
2022/12/22 03:32:05;;;;;;;187.10;87.70;;;;;;;-0.02;91.93;98529.21;85771;1287;99929;-70
2022/12/22 03:34:07;;;;;;;166.80;81.80;;;;;;;-0.02;91.85;98530.77;85999;1281;22545;-72
2022/12/22 03:36:09;;;;;;;168.20;84.20;;;;;;;-0.02;91.88;98525.59;85842;1287;22524;-72
2022/12/22 03:38:11;;;;;;;167.70;79.50;;;;;;;-0.02;91.72;98523.52;86048;1288;98482;-72
2022/12/22 03:40:12;;;;;;;163.10;80.90;;;;;;;-0.03;92.00;98513.35;85892;1289;22764;-72
2022/12/22 03:46:55;;;;;;;140.30;69.50;;;;;;;-0.02;91.89;98514.21;86062;1287;24271;-72
2022/12/22 03:49:11;;;;;;;144.10;73.70;;;;;;;-0.03;91.70;98516.80;85948;1281;22519;-71
2022/12/22 03:51:13;;;;;;;159.10;73.10;;;;;;;-0.01;91.91;98522.31;85888;1284;99663;-70
2022/12/22 03:53:15;;;;;;;173.80;74.30;;;;;;;-0.01;92.03;98517.30;85925;1290;22591;-71
2022/12/22 03:55:16;;;;;;;161.10;72.60;;;;;;;0.01;91.85;98524.02;86009;1287;24323;-70
2022/12/22 03:57:18;;;;;;;139.10;67.00;;;;;;;0.01;92.03;98530.05;85707;1284;99443;-71
2022/12/22 03:59:20;;;;;;;148.90;72.70;;;;;;;-0.04;92.04;98524.93;86046;1288;22535;-71
2022/12/22 04:01:21;;;;;;;149.70;71.00;;;;;;;0.03;92.00;98539.35;85950;1286;22600;-71
2022/12/22 04:03:23;;;;;;;146.90;71.40;;;;;;;0.04;91.87;98536.92;86045;1285;98943;-72
2022/12/22 04:05:25;;;;;;;141.80;70.80;;;;;;;0.04;91.91;98536.06;85967;1290;22940;-71
2022/12/22 04:07:27;;;;;;;169.20;70.30;;;;;;;0.04;91.98;98534.14;85838;1283;25748;-70
2022/12/22 04:09:28;;;;;;;140.40;68.40;;;;;;;0.04;91.99;98532.23;85911;1288;24289;-71
2022/12/22 04:13:51;;;;;;;133.90;64.30;;;;;;;0.02;91.83;98515.17;85906;1281;99406;-72
2022/12/22 04:15:52;;;;;;;147.00;64.80;;;;;;;0.02;91.78;98505.17;86081;1281;22952;-72
2022/12/22 04:17:54;;;;;;;128.40;63.50;;;;;;;0.03;92.03;98505.34;86057;1287;24034;-71
2022/12/22 04:19:56;;;;;;;129.50;63.00;;;;;;;0.03;92.01;98508.44;85997;1289;98127;-71
2022/12/22 04:21:58;;;;;;;131.30;64.70;;;;;;;0.03;91.96;98510.86;85993;1283;26955;-71
2022/12/22 04:24:00;;;;;;;129.00;67.50;;;;;;;0.02;91.75;98512.41;85982;1288;24227;-72
2022/12/22 04:26:02;;;;;;;130.70;66.50;;;;;;;0.02;91.90;98511.04;85987;1287;99340;-71
2022/12/22 04:28:04;;;;;;;138.60;71.60;;;;;;;0.02;91.89;98514.15;86108;1288;23720;-72
2022/12/22 04:30:07;;;;;;;139.50;73.10;;;;;;;0.03;91.82;98519.14;86158;1280;24269;-71
2022/12/22 04:32:08;;;;;;;148.00;76.70;;;;;;;0.03;91.85;98520.18;85933;1290;98333;-73
2022/12/22 04:34:10;;;;;;;162.10;78.80;;;;;;;0.04;92.05;98520.69;86291;1288;22611;-72
2022/12/22 04:36:12;;;;;;;150.70;77.70;;;;;;;0.03;91.93;98516.54;86831;1281;23506;-72
2022/12/22 04:38:14;;;;;;;155.70;81.70;;;;;;;0.03;91.88;98510.84;86754;1291;100187;-72
2022/12/22 04:40:19;;;;;;;169.10;83.00;;;;;;;0.04;91.89;98501.84;86466;1288;22561;-71
2022/12/22 04:42:21;;;;;;;164.70;83.70;;;;;;;0.04;91.84;98497.35;85930;1280;22497;-71
2022/12/22 04:44:23;;;;;;;176.00;82.10;;;;;;;0.05;91.82;98498.39;86223;1280;99704;-71
2022/12/22 04:46:24;;;;;;;159.30;78.00;;;;;;;0.05;91.86;98497.52;86110;1287;22488;-72
2022/12/22 04:48:28;;;;;;;158.30;80.90;;;;;;;0.05;92.11;98499.24;86291;1281;22590;-72
2022/12/22 04:50:29;;;;;;;169.00;83.60;;;;;;;0.05;92.10;98497.52;85984;1289;98090;-72
2022/12/22 04:52:31;;;;;;;160.60;83.40;;;;;;;0.05;91.99;98494.23;86185;1281;22503;-72
2022/12/22 04:54:33;;;;;;;174.00;83.90;;;;;;;0.05;92.12;98486.13;86185;1287;22467;-72
2022/12/22 04:56:34;;;;;;;177.70;85.30;;;;;;;0.05;91.89;98481.28;85877;1283;99256;-72
2022/12/22 04:58:36;;;;;;;168.80;83.70;;;;;;;0.05;92.07;98478.70;86072;1281;22496;-72
2022/12/22 05:00:38;;;;;;;169.00;83.70;;;;;;;0.04;91.98;98477.14;86133;1280;25159;-72
2022/12/22 05:02:39;;;;;;;160.60;84.30;;;;;;;0.04;92.02;98479.05;86162;1288;98266;-73
2022/12/22 05:04:41;;;;;;;185.00;84.90;;;;;;;0.03;91.81;98471.80;86074;1284;23080;-74
2022/12/22 05:06:43;;;;;;;155.20;82.80;;;;;;;0.05;92.00;98471.27;86084;1281;25323;-72
2022/12/22 05:08:44;;;;;;;171.10;78.70;;;;;;;0.05;92.01;98470.92;85834;1283;99629;-72
2022/12/22 05:10:46;;;;;;;161.00;77.90;;;;;;;0.05;92.01;98472.14;85893;1287;24373;-72
2022/12/22 05:12:54;;;;;;;158.40;78.70;;;;;;;0.04;91.86;98472.48;86092;1280;22489;-71
2022/12/22 05:14:55;;;;;;;169.40;80.40;;;;;;;0.04;92.13;98471.62;85933;1288;99232;-72
2022/12/22 05:16:57;;;;;;;167.30;80.00;;;;;;;0.04;92.04;98471.78;85927;1284;22594;-72
2022/12/22 05:18:59;;;;;;;158.50;78.70;;;;;;;0.04;91.88;98469.20;86115;1287;26313;-72
2022/12/22 05:21:02;;;;;;;161.30;82.20;;;;;;;0.03;91.96;98471.64;86098;1287;99174;-74
2022/12/22 05:23:04;;;;;;;177.90;85.80;;;;;;;0.04;91.94;98474.39;86074;1288;22710;-74
2022/12/22 05:25:06;;;;;;;159.40;86.70;;;;;;;0.03;92.05;98476.48;86172;1288;23970;-73
2022/12/22 05:27:10;;;;;;;155.90;80.20;;;;;;;0.04;92.11;98473.70;85763;1291;99404;-73
2022/12/22 05:29:11;;;;;;;164.90;81.70;;;;;;;0.03;92.03;98471.46;86380;1290;24007;-73
2022/12/22 05:31:20;;;;;;;167.60;77.30;;;;;;;0.04;91.94;98470.42;86185;1288;24334;-73
2022/12/22 05:33:21;;;;;;;172.10;76.40;;;;;;;0.03;91.88;98469.38;86088;1288;98846;-73
2022/12/22 05:35:23;;;;;;;211.30;76.10;;;;;;;0.03;92.06;98466.80;86069;1288;22574;-73
2022/12/22 05:37:24;;;;;;;174.20;74.30;;;;;;;0.03;91.88;98465.77;86092;1284;22523;-73
2022/12/22 05:39:26;;;;;;;176.80;81.30;;;;;;;0.03;91.99;98464.91;86120;1280;97954;-73
2022/12/22 05:41:28;;;;;;;172.00;83.10;;;;;;;0.03;91.95;98464.04;86194;1287;22670;-73
2022/12/22 05:43:30;;;;;;;152.00;78.90;;;;;;;0.02;92.05;98458.35;86139;1280;98403;-74
2022/12/22 05:45:31;;;;;;;157.70;79.90;;;;;;;0.02;92.11;98460.42;86164;1287;22486;-74
2022/12/22 05:47:33;;;;;;;146.30;78.20;;;;;;;0.02;91.82;98459.23;86156;1290;25616;-75
2022/12/22 05:49:35;;;;;;;166.60;84.70;;;;;;;0.02;91.90;98451.10;86075;1281;99138;-74
2022/12/22 05:51:36;;;;;;;177.40;77.50;;;;;;;0.03;92.03;98450.75;86234;1283;22566;-73
2022/12/22 05:53:38;;;;;;;164.90;78.50;;;;;;;0.03;91.88;98452.81;86253;1283;22579;-73
2022/12/22 05:55:40;;;;;;;165.40;79.60;;;;;;;0.02;91.98;98449.90;86092;1291;98405;-74
2022/12/22 05:57:42;;;;;;;170.80;82.30;;;;;;;0.02;92.03;98453.35;86503;1281;22580;-74
2022/12/22 05:59:44;;;;;;;152.80;75.00;;;;;;;0.02;91.83;98452.48;86947;1287;24243;-75
2022/12/22 06:01:46;;;;;;;155.30;77.80;;;;;;;0.01;91.91;98453.02;86126;1283;98475;-76
2022/12/22 06:03:47;;;;;;;187.30;79.10;;;;;;;0.01;91.96;98453.52;86390;1281;22619;-77
2022/12/22 06:05:49;;;;;;;175.00;79.20;;;;;;;0.02;91.90;98450.25;86324;1284;22941;-75
2022/12/22 06:07:51;;;;;;;154.20;80.80;;;;;;;0.02;91.98;98448.17;86209;1283;98221;-75
2022/12/22 06:09:53;;;;;;;162.70;79.40;;;;;;;0.02;91.91;98453.36;86387;1281;23869;-75
2022/12/22 06:11:54;;;;;;;184.40;79.40;;;;;;;0.02;91.93;98456.63;86333;1280;24315;-74
2022/12/22 06:13:56;;;;;;;163.50;79.50;;;;;;;0.02;91.67;98458.36;86321;1287;99297;-75
2022/12/22 06:15:58;;;;;;;179.80;79.90;;;;;;;0.02;91.73;98461.82;86484;1281;22668;-75
2022/12/22 06:17:59;;;;;;;173.00;77.50;;;;;;;0.02;91.85;98463.37;86484;1288;22590;-75
2022/12/22 06:20:01;;;;;;;160.50;74.80;;;;;;;0.02;92.01;98469.93;86249;1288;98907;-76
2022/12/22 06:22:03;;;;;;;169.00;73.20;;;;;;;0.03;92.03;98471.48;86302;1283;22490;-75
2022/12/22 06:24:05;;;;;;;173.70;74.40;;;;;;;0.02;91.91;98465.09;86321;1283;22560;-75
2022/12/22 06:26:07;;;;;;;159.30;74.40;;;;;;;0.02;91.87;98465.43;86138;1290;98341;-74
2022/12/22 06:28:09;;;;;;;162.00;73.30;;;;;;;0.03;91.73;98465.08;86498;1288;24413;-73
2022/12/22 06:30:11;;;;;;;138.90;72.60;;;;;;;0.03;92.05;98467.67;86491;1287;22494;-75
2022/12/22 06:32:12;;;;;;;141.70;71.70;;;;;;;0.02;91.97;98468.20;86202;1282;98196;-75
2022/12/22 06:34:16;;;;;;;148.70;69.10;;;;;;;0.03;91.73;98468.03;86201;1282;22576;-74
2022/12/22 06:36:18;;;;;;;122.30;64.70;;;;;;;0.02;91.87;98470.45;86476;1285;22440;-74
2022/12/22 06:38:20;;;;;;;114.90;57.00;;;;;;;0.03;91.95;98467.50;86200;1283;98299;-74
2022/12/22 06:40:21;;;;;;;111.80;56.30;;;;;;;0.03;91.94;98465.77;86190;1291;22579;-74
2022/12/22 06:44:44;;;;;;;143.40;58.90;;;;;;;0.04;91.88;98465.92;86261;1287;98080;-74
2022/12/22 06:46:45;;;;;;;101.60;51.30;;;;;;;0.04;91.86;98463.85;86376;1286;22550;-73
2022/12/22 06:48:47;;;;;;;112.60;60.30;;;;;;;0.04;91.90;98460.04;86316;1284;22787;-73
2022/12/22 06:50:49;;;;;;;101.70;53.40;;;;;;;0.04;91.87;98458.66;86330;1288;100021;-74
2022/12/22 06:52:51;;;;;;;145.10;54.40;;;;;;;0.04;91.77;98455.20;86283;1295;22553;-74
2022/12/22 06:54:52;;;;;;;112.10;61.20;;;;;;;0.06;92.16;98452.61;86475;1281;22510;-76
2022/12/22 06:56:54;;;;;;;140.20;69.70;;;;;;;0.05;91.97;98451.40;86176;1284;98108;-74
2022/12/22 06:58:56;;;;;;;139.20;67.00;;;;;;;0.05;91.87;98448.64;86206;1290;24226;-74
2022/12/22 07:00:57;;;;;;;161.50;77.40;;;;;;;0.05;91.88;98452.09;86378;1282;24177;-74
2022/12/22 07:02:59;;;;;;;175.70;78.60;;;;;;;0.05;91.96;98453.64;86308;1285;99273;-75
2022/12/22 07:05:01;;;;;;;179.70;78.20;;;;;;;0.06;92.08;98454.33;86244;1284;22526;-74
2022/12/22 07:07:03;;;;;;;170.90;76.50;;;;;;;0.07;92.02;98457.61;86165;1291;22725;-73
2022/12/22 07:09:05;;;;;;;152.10;72.90;;;;;;;0.06;92.01;98453.45;86268;1287;98120;-73
2022/12/22 07:11:06;;;;;;;160.20;79.30;;;;;;;0.06;92.03;98459.34;86300;1280;22444;-74
2022/12/22 07:13:20;;;;;;;167.90;76.50;;;;;;;0.06;91.93;98464.00;86276;1280;22833;-73
2022/12/22 07:15:22;;;;;;;159.30;78.70;;;;;;;0.07;92.03;98463.66;86411;1287;98021;-74
2022/12/22 07:17:23;;;;;;;189.80;75.60;;;;;;;0.07;91.93;98456.38;86285;1281;22787;-74
2022/12/22 07:19:25;;;;;;;163.10;78.10;;;;;;;0.08;92.00;98451.02;86467;1287;22453;-74
2022/12/22 07:21:27;;;;;;;159.90;68.30;;;;;;;0.07;91.94;98445.85;86175;1287;99348;-73
2022/12/22 07:23:29;;;;;;;118.90;65.70;;;;;;;0.06;92.03;98441.20;86313;1288;22523;-73
2022/12/22 07:25:31;;;;;;;80.80;45.30;;;;;;;0.07;92.00;98441.87;86486;1284;98891;-74
2022/12/22 07:27:33;;;;;;;122.50;58.60;;;;;;;0.02;92.06;98430.21;86394;1283;23057;-74
2022/12/22 07:29:35;;;;;;;98.60;44.50;;;;;;;0.08;92.16;98437.55;86399;1281;22696;-74
2022/12/22 07:31:37;;;;;;;97.60;51.10;;;;;;;0.07;91.80;98438.41;86142;1290;99811;-74
2022/12/22 07:33:38;;;;;;;130.30;68.00;;;;;;;0.08;91.80;98440.14;86116;1307;23443;-74
2022/12/22 07:35:40;;;;;;;95.80;54.90;;;;;;;0.08;91.91;98444.10;86215;1290;22491;-74
2022/12/22 07:37:41;;;;;;;139.10;65.10;;;;;;;0.09;91.85;98444.95;86316;1287;99583;-74
2022/12/22 07:39:43;;;;;;;133.40;69.10;;;;;;;0.09;91.96;98445.66;86297;1281;22633;-74
2022/12/22 07:44:06;;;;;;;148.00;69.90;;;;;;;0.08;91.81;98445.48;86261;1287;98116;-74
2022/12/22 07:46:07;;;;;;;165.20;74.30;;;;;;;0.08;91.89;98439.95;86363;1281;22630;-74
2022/12/22 07:50:23;;;;;;;143.50;74.00;;;;;;;0.08;91.81;98436.15;86265;1298;23057;-74
2022/12/22 07:50:31;;;;;;;;;;;;;;;0.09;91.97;98429.75;86219;1288;98582;-74
2022/12/22 07:52:33;;;;;;;130.30;72.30;;;;;;;0.08;91.99;98428.21;86251;1282;22687;-75
2022/12/22 07:54:35;;;;;;;152.70;75.00;;;;;;;0.08;91.85;98432.88;86340;1285;22555;-75
2022/12/22 07:56:37;;;;;;;159.00;68.90;;;;;;;0.09;91.76;98427.51;86194;1283;99230;-75
2022/12/22 07:58:39;;;;;;;161.40;74.60;;;;;;;0.09;91.80;98425.09;86455;1289;22992;-75
2022/12/22 08:00:41;;;;;;;119.90;64.10;;;;;;;0.09;91.89;98425.09;86370;1282;22527;-75
2022/12/22 08:02:48;;;;;;;116.70;54.90;;;;;;;0.10;91.92;98420.92;86356;1281;98179;-75
2022/12/22 08:04:49;;;;;;;101.60;47.20;;;;;;;0.10;91.88;98419.55;86645;1288;22482;-75
2022/12/22 08:06:51;;;;;;;73.20;36.80;;;;;;;0.11;92.01;98416.78;86351;1281;22825;-75
2022/12/22 08:08:53;;;;;;;144.10;70.40;;;;;;;0.10;91.86;98418.17;86216;1289;97921;-76
2022/12/22 08:10:54;;;;;;;135.50;73.70;;;;;;;0.10;91.79;98421.96;86285;1283;27039;-75
2022/12/22 08:12:56;;;;;;;174.40;74.30;;;;;;;0.11;91.97;98420.57;86349;1291;25875;-74
2022/12/22 08:14:58;;;;;;;164.70;75.00;;;;;;;0.12;91.80;98418.14;86510;1280;98212;-75
2022/12/22 08:17:00;;;;;;;123.70;65.00;;;;;;;0.12;92.05;98413.64;86343;1291;25294;-75
2022/12/22 08:19:01;;;;;;;113.90;61.10;;;;;;;0.13;91.89;98413.63;86748;1284;22639;-76
2022/12/22 08:21:04;;;;;;;120.00;63.50;;;;;;;0.13;91.77;98414.83;86855;1284;98847;-75
2022/12/22 08:23:06;;;;;;;113.10;61.10;;;;;;;0.13;91.75;98413.63;87027;1289;22436;-75
2022/12/22 08:25:08;;;;;;;93.20;49.40;;;;;;;0.12;91.74;98411.39;86888;1297;24181;-78
2022/12/22 08:27:15;;;;;;;115.30;56.70;;;;;;;0.13;91.68;98408.27;86642;1288;98894;-76
2022/12/22 08:29:23;;;;;;;109.90;59.90;;;;;;;0.13;91.68;98403.95;86611;1288;22493;-73
2022/12/22 08:31:27;;;;;;;108.00;61.80;;;;;;;0.13;91.90;98399.30;86799;1288;24238;-74
2022/12/22 08:33:29;;;;;;;114.10;61.20;;;;;;;0.13;92.00;98400.15;86557;1297;97930;-75
2022/12/22 08:35:31;;;;;;;123.40;70.30;;;;;;;0.14;92.02;98405.33;86495;1288;22506;-74
2022/12/22 08:37:40;;;;;;;127.90;67.40;;;;;;;0.14;91.71;98399.63;86212;1284;99150;-74
2022/12/22 08:39:45;;;;;;;113.70;64.20;;;;;;;0.15;91.92;98392.70;86565;1290;22592;-74
2022/12/22 08:41:49;;;;;;;117.30;61.90;;;;;;;0.16;92.08;98393.72;86680;1288;24086;-74
2022/12/22 08:43:51;;;;;;;120.30;64.30;;;;;;;0.15;91.82;98392.35;86249;1292;98528;-74
2022/12/22 08:45:53;;;;;;;124.00;60.50;;;;;;;0.16;91.83;98395.27;86213;1288;22479;-74
2022/12/22 08:47:54;;;;;;;120.30;60.70;;;;;;;0.17;91.95;98393.87;86116;1283;22538;-74
2022/12/22 08:49:56;;;;;;;73.20;39.90;;;;;;;0.19;91.79;98393.51;86251;1283;99260;-73
2022/12/22 08:51:58;;;;;;;163.80;74.20;;;;;;;0.20;91.78;98391.42;86201;1284;25280;-74
2022/12/22 08:53:59;;;;;;;108.40;60.60;;;;;;;0.21;91.95;98391.56;86296;1283;22540;-75
2022/12/22 08:56:01;;;;;;;123.90;65.30;;;;;;;0.22;91.97;98390.52;86070;1283;98514;-75
2022/12/22 08:58:03;;;;;;;121.10;64.40;;;;;;;0.22;91.91;98381.36;86443;1286;22582;-75
2022/12/22 09:00:07;;;;;;;118.40;65.20;;;;;;;0.22;91.66;98375.83;86373;1287;24469;-74
2022/12/22 09:02:09;;;;;;;107.10;59.00;;;;;;;0.22;91.94;98371.51;86274;1289;105857;-75
2022/12/22 09:04:13;;;;;;;109.40;59.10;;;;;;;0.22;91.56;98368.21;86342;1281;22577;-75
2022/12/22 09:06:14;;;;;;;108.20;58.00;;;;;;;0.23;91.91;98370.81;86240;1283;22577;-74
2022/12/22 09:08:16;;;;;;;120.50;63.20;;;;;;;0.23;91.85;98367.01;86064;1290;99261;-75
2022/12/22 09:10:18;;;;;;;101.60;56.00;;;;;;;0.23;91.85;98364.24;86295;1288;22491;-73
2022/12/22 09:12:19;;;;;;;108.10;60.00;;;;;;;0.23;91.81;98365.80;86151;1287;22577;-74
2022/12/22 09:14:21;;;;;;;106.10;54.80;;;;;;;0.23;91.75;98364.41;86266;1281;98139;-74
2022/12/22 09:16:24;;;;;;;104.90;57.30;;;;;;;0.23;91.86;98363.89;86301;1280;26612;-74
2022/12/22 09:18:26;;;;;;;92.80;49.00;;;;;;;0.24;91.80;98361.30;86229;1281;25308;-74
2022/12/22 09:20:28;;;;;;;134.20;66.70;;;;;;;0.24;91.85;98358.35;86236;1280;98331;-74
2022/12/22 09:22:29;;;;;;;91.50;46.80;;;;;;;0.23;91.75;98351.29;86465;1287;22588;-74
2022/12/22 09:24:31;;;;;;;133.50;65.40;;;;;;;0.24;91.72;98347.64;86192;1290;22650;-75
2022/12/22 09:26:33;;;;;;;171.60;92.50;;;;;;;0.25;91.69;98342.27;86117;1281;98759;-74
2022/12/22 09:28:35;;;;;;;131.40;69.60;;;;;;;0.24;91.70;98337.78;86237;1290;24158;-73
2022/12/22 09:30:37;;;;;;;127.00;60.70;;;;;;;0.24;91.60;98336.75;86147;1290;22685;-74
2022/12/22 09:32:39;;;;;;;173.70;86.20;;;;;;;0.25;91.83;98329.64;86037;1289;98086;-74
2022/12/22 09:34:40;;;;;;;151.40;77.50;;;;;;;0.25;91.84;98326.89;86183;1283;22473;-73
2022/12/22 09:36:42;;;;;;;151.40;78.00;;;;;;;0.25;91.84;98327.22;86111;1290;25876;-74
2022/12/22 09:38:44;;;;;;;157.60;80.80;;;;;;;0.26;91.85;98324.80;86180;1288;99202;-74
2022/12/22 09:40:46;;;;;;;147.00;75.80;;;;;;;0.26;91.71;98320.83;86098;1283;22969;-74
2022/12/22 09:42:48;;;;;;;161.20;87.10;;;;;;;0.26;91.93;98317.02;86281;1283;22492;-73
2022/12/22 09:44:50;;;;;;;175.50;89.70;;;;;;;0.28;91.76;98309.57;86065;1283;100304;-73
2022/12/22 09:46:56;;;;;;;157.70;85.90;;;;;;;0.29;91.82;98301.08;86308;1281;24594;-73
2022/12/22 09:48:58;;;;;;;142.80;78.30;;;;;;;0.29;91.75;98298.81;86174;1294;25127;-74
2022/12/22 09:51:01;;;;;;;135.10;75.60;;;;;;;0.30;91.79;98292.93;85997;1288;99257;-73
2022/12/22 09:53:05;;;;;;;147.70;77.70;;;;;;;0.31;91.71;98288.92;86194;1280;24330;-73
2022/12/22 09:55:41;;;;;;;141.20;74.70;;;;;;;0.30;91.77;98296.38;86097;1280;22611;-73
2022/12/22 09:57:43;;;;;;;130.20;71.80;;;;;;;0.31;91.62;98301.38;86108;1285;24687;-73
2022/12/22 09:59:44;;;;;;;133.70;75.10;;;;;;;0.31;91.57;98297.41;85908;1283;22498;-73
2022/12/22 10:01:55;;;;;;;93.50;46.50;;;;;;;0.32;91.62;98294.12;86048;1281;100288;-73
2022/12/22 10:04:18;;;;;;;115.80;63.80;;;;;;;0.33;91.72;98292.70;85907;1283;22621;-72
2022/12/22 10:06:47;;;;;;;109.80;57.90;;;;;;;0.33;91.56;98288.55;86229;1280;24257;-72
2022/12/22 10:08:49;;;;;;;105.10;58.20;;;;;;;0.35;91.51;98287.32;86016;1280;100366;-72
2022/12/22 10:10:54;;;;;;;111.40;61.50;;;;;;;0.36;91.77;98277.98;85962;1283;22733;-73
2022/12/22 10:13:00;;;;;;;116.40;63.70;;;;;;;0.36;91.61;98276.23;86023;1281;26473;-72
2022/12/22 10:15:02;;;;;;;104.20;61.00;;;;;;;0.37;91.47;98272.06;86057;1281;101921;-71
2022/12/22 10:17:13;;;;;;;114.10;65.20;;;;;;;0.38;91.51;98270.16;86071;1281;22586;-71
2022/12/22 10:19:15;;;;;;;104.60;61.50;;;;;;;0.39;91.50;98270.65;86123;1287;24277;-71
2022/12/22 10:21:22;;;;;;;113.70;65.10;;;;;;;0.39;91.49;98265.30;85953;1287;99489;-71
2022/12/22 10:23:28;;;;;;;119.40;65.20;;;;;;;0.39;91.43;98256.14;85963;1281;23340;-71
2022/12/22 10:25:33;;;;;;;121.70;66.00;;;;;;;0.39;91.58;98252.52;86151;1281;22579;-71
2022/12/22 10:27:36;;;;;;;115.90;69.60;;;;;;;0.40;91.40;98249.91;86206;1283;22554;-71
2022/12/22 10:29:38;;;;;;;135.60;72.90;;;;;;;0.40;91.43;98248.88;86062;1280;22990;-71
2022/12/22 10:32:02;;;;;;;125.90;71.20;;;;;;;0.40;91.46;98248.17;85858;1280;99386;-71
2022/12/22 10:34:16;;;;;;;133.90;70.60;;;;;;;0.41;91.57;98244.18;86160;1288;23220;-71
2022/12/22 10:36:27;;;;;;;155.50;86.10;;;;;;;0.41;91.62;98239.16;86531;1280;22526;-70
2022/12/22 10:38:35;;;;;;;148.50;86.20;;;;;;;0.41;91.42;98231.56;86114;1281;99206;-71
2022/12/22 10:40:43;;;;;;;152.50;89.30;;;;;;;0.42;91.51;98233.43;86550;1287;22650;-71
2022/12/22 10:42:54;;;;;;;160.30;87.60;;;;;;;0.42;91.49;98231.88;85918;1286;25464;-71
2022/12/22 10:44:57;;;;;;;159.00;90.90;;;;;;;0.42;91.65;98229.98;86026;1287;99156;-71
2022/12/22 10:47:12;;;;;;;144.50;84.10;;;;;;;0.41;91.36;98230.67;86020;1280;22538;-71
2022/12/22 10:49:32;;;;;;;148.00;84.90;;;;;;;0.41;91.31;98229.48;85972;1280;22510;-71
2022/12/22 10:51:34;;;;;;;135.00;85.40;;;;;;;0.40;91.58;98227.95;86154;1280;22564;-70
2022/12/22 10:53:48;;;;;;;154.60;89.20;;;;;;;0.41;91.45;98225.16;86018;1287;23025;-70
2022/12/22 10:56:05;;;;;;;137.50;84.10;;;;;;;0.41;91.62;98215.83;85896;1283;99870;-70
2022/12/22 10:58:09;;;;;;;157.70;89.90;;;;;;;0.41;91.49;98209.77;85931;1283;23144;-70
2022/12/22 11:00:24;;;;;;;150.50;90.10;;;;;;;0.42;91.57;98207.17;86084;1281;23279;-71
2022/12/22 11:02:31;;;;;;;151.20;93.10;;;;;;;0.42;91.44;98199.58;86059;1280;99334;-70
2022/12/22 11:04:33;;;;;;;149.20;88.20;;;;;;;0.42;91.44;98199.39;85901;1288;24256;-70
2022/12/22 11:06:43;;;;;;;154.00;85.70;;;;;;;0.42;91.46;98197.67;85921;1283;22582;-69
2022/12/22 11:08:45;;;;;;;154.60;90.50;;;;;;;0.41;91.43;98196.82;86104;1288;99368;-70
2022/12/22 11:11:01;;;;;;;149.20;86.80;;;;;;;0.41;91.50;98196.14;86001;1281;22540;-69
2022/12/22 11:13:25;;;;;;;137.60;80.60;;;;;;;0.41;91.22;98192.66;86026;1281;22547;-69
2022/12/22 11:15:38;;;;;;;141.90;81.80;;;;;;;0.42;91.69;98187.82;85930;1281;99065;-70
2022/12/22 11:18:09;;;;;;;133.10;78.50;;;;;;;0.41;91.24;98181.78;85825;1287;230555;-70
2022/12/22 11:20:16;;;;;;;128.10;79.10;;;;;;;0.41;91.42;98182.30;85979;1281;100209;-71
2022/12/22 11:22:38;;;;;;;132.50;78.60;;;;;;;0.41;91.59;98187.50;86108;1281;22602;-70
2022/12/22 11:25:11;;;;;;;123.40;68.20;;;;;;;0.42;91.38;98192.66;85939;1283;24369;-70
2022/12/22 11:27:32;;;;;;;121.00;71.30;;;;;;;0.41;91.43;98190.25;85829;1285;99254;-69
2022/12/22 11:29:55;;;;;;;122.20;70.10;;;;;;;0.42;91.35;98185.40;86078;1285;22625;-70
2022/12/22 11:32:31;;;;;;;105.30;62.70;;;;;;;0.41;91.43;98181.26;86143;1287;98252;-71
2022/12/22 11:34:58;;;;;;;112.90;61.80;;;;;;;0.42;91.55;98176.06;86054;1287;22532;-70
2022/12/22 11:37:09;;;;;;;94.00;54.00;;;;;;;0.42;91.55;98172.77;86079;1288;22953;-70
2022/12/22 11:39:17;;;;;;;91.30;53.30;;;;;;;0.43;91.52;98165.84;85939;1280;99043;-70
2022/12/22 11:41:45;;;;;;;93.80;54.20;;;;;;;0.43;91.41;98165.69;86082;1281;22519;-71
2022/12/22 11:44:13;;;;;;;91.40;53.50;;;;;;;0.43;91.44;98165.35;85868;1288;99711;-70
2022/12/22 11:46:24;;;;;;;91.10;54.30;;;;;;;0.43;91.27;98162.55;86233;1281;22613;-71
2022/12/22 11:48:49;;;;;;;98.60;57.50;;;;;;;0.44;91.48;98159.95;86034;1281;22628;-70
2022/12/22 11:50:58;;;;;;;97.90;54.00;;;;;;;0.43;91.40;98161.00;85979;1287;98925;-69
2022/12/22 11:53:24;;;;;;;94.30;52.70;;;;;;;0.43;91.60;98161.86;86303;1284;22738;-69
2022/12/22 11:55:33;;;;;;;99.90;56.20;;;;;;;0.44;91.13;98161.34;86182;1280;22515;-70
2022/12/22 11:57:54;;;;;;;86.40;51.70;;;;;;;0.44;91.40;98160.64;87183;1288;22591;-69
2022/12/22 12:00:09;;;;;;;99.90;58.30;;;;;;;0.45;91.42;98158.19;87147;1281;23337;-69
2022/12/22 12:02:39;;;;;;;88.80;53.00;;;;;;;0.45;91.40;98161.13;86920;1281;98025;-70
2022/12/22 12:05:45;;;;;;;108.50;61.20;;;;;;;0.47;91.43;98157.98;87229;1280;22500;-71
2022/12/22 12:07:55;;;;;;;100.60;57.00;;;;;;;0.49;91.20;98156.56;85599;1294;99834;-69
2022/12/22 12:10:12;;;;;;;107.40;58.10;;;;;;;0.51;91.55;98148.74;85809;1289;23385;-69
2022/12/22 12:12:55;;;;;;;115.20;60.40;;;;;;;0.54;91.40;98147.30;85670;1286;22498;-69
2022/12/22 12:15:15;;;;;;;111.50;61.20;;;;;;;0.53;91.51;98142.83;85463;1293;98044;-70
2022/12/22 12:17:24;;;;;;;81.40;48.90;;;;;;;0.54;91.19;98144.71;85588;1292;22501;-70
2022/12/22 12:19:32;;;;;;;121.20;65.20;;;;;;;0.53;91.48;98138.69;85558;1294;22549;-70
2022/12/22 12:21:50;;;;;;;112.60;62.20;;;;;;;0.54;91.46;98133.99;85573;1287;98965;-70
2022/12/22 12:24:04;;;;;;;116.90;67.40;;;;;;;0.55;91.52;98134.98;85565;1286;22831;-70
2022/12/22 12:26:27;;;;;;;123.90;65.90;;;;;;;0.56;91.52;98133.41;85430;1288;99548;-70
2022/12/22 12:28:47;;;;;;;100.10;58.20;;;;;;;0.58;91.45;98131.48;85440;1290;25749;-70
2022/12/22 12:30:53;;;;;;;115.20;63.80;;;;;;;0.58;91.46;98131.48;85512;1290;25408;-70
2022/12/22 12:33:26;;;;;;;106.80;61.60;;;;;;;0.58;91.48;98130.61;85291;1297;99243;-73
2022/12/22 12:35:52;;;;;;;111.80;60.60;;;;;;;0.56;91.47;98122.70;85483;1290;22523;-71
2022/12/22 12:38:19;;;;;;;104.30;59.90;;;;;;;0.54;91.36;98122.59;85476;1287;99763;-71
2022/12/22 12:40:36;;;;;;;114.30;62.10;;;;;;;0.54;91.49;98125.00;85901;1288;24424;-71
2022/12/22 12:42:42;;;;;;;112.20;64.50;;;;;;;0.53;91.45;98117.24;85868;1283;22424;-70
2022/12/22 12:44:45;;;;;;;111.10;62.40;;;;;;;0.54;91.50;98114.47;85859;1290;99115;-70
2022/12/22 12:46:50;;;;;;;105.90;61.80;;;;;;;0.53;91.38;98113.43;85804;1287;25357;-71
2022/12/22 12:48:51;;;;;;;105.80;63.50;;;;;;;0.52;91.50;98117.44;86113;1281;22942;-69
2022/12/22 12:50:55;;;;;;;129.20;72.40;;;;;;;0.52;91.57;98109.85;86079;1280;99330;-70
2022/12/22 12:52:57;;;;;;;121.50;71.80;;;;;;;0.52;91.52;98106.73;87565;1287;22478;-70
2022/12/22 12:55:37;;;;;;;131.10;78.30;;;;;;;0.52;91.55;98104.67;86177;1285;24569;-70
2022/12/22 12:57:47;;;;;;;124.60;76.90;;;;;;;0.50;91.50;98098.98;85864;1291;22522;-70
2022/12/22 12:59:51;;;;;;;136.20;77.20;;;;;;;0.50;91.41;98098.80;85788;1287;22484;-70
2022/12/22 13:01:54;;;;;;;118.50;71.30;;;;;;;0.50;91.30;98096.04;85580;1287;99252;-70
2022/12/22 13:03:56;;;;;;;135.90;75.20;;;;;;;0.49;91.36;98096.92;85799;1284;22575;-70
2022/12/22 13:06:00;;;;;;;134.50;75.70;;;;;;;0.49;91.54;98098.82;85587;1294;22484;-70
2022/12/22 13:08:14;;;;;;;136.60;71.50;;;;;;;0.49;91.37;98095.37;85500;1293;100923;-70
2022/12/22 13:10:25;;;;;;;123.20;70.70;;;;;;;0.49;91.20;98093.13;85658;1287;23525;-70
2022/12/22 13:12:53;;;;;;;121.40;69.80;;;;;;;0.48;91.40;98088.63;85585;1292;22637;-70
2022/12/22 13:15:00;;;;;;;126.90;70.00;;;;;;;0.48;91.16;98082.42;85487;1294;99725;-71
2022/12/22 13:17:36;;;;;;;140.50;77.20;;;;;;;0.47;91.29;98080.20;86117;1287;22807;-70